createdAt,value
2022-10-11T00:00:37.925Z,5.38
2022-10-11T00:03:05.095Z,3.85
2022-10-11T00:05:32.525Z,4.50
2022-10-11T00:07:59.738Z,3.90
2022-10-11T00:10:27.143Z,4.50
2022-10-11T00:12:54.490Z,5.18
2022-10-11T00:15:21.773Z,4.10
2022-10-11T00:17:48.997Z,4.90
2022-10-11T00:20:16.343Z,4.18
2022-10-11T00:22:43.745Z,4.90
2022-10-11T00:25:11.144Z,4.88
2022-10-11T00:27:38.344Z,5.03
2022-10-11T00:30:05.631Z,5.20
2022-10-11T00:32:32.907Z,4.32
2022-10-11T00:35:04.746Z,4.68
2022-10-11T00:37:32.007Z,5.22
2022-10-11T00:39:59.199Z,4.57
2022-10-11T00:42:26.425Z,4.22
2022-10-11T00:44:53.731Z,4.05
2022-10-11T00:47:20.994Z,4.82
2022-10-11T00:49:48.241Z,4.07
2022-10-11T00:52:15.657Z,3.65
2022-10-11T00:54:42.874Z,4.22
2022-10-11T00:57:10.138Z,3.63
2022-10-11T00:59:37.401Z,4.60
2022-10-11T01:02:04.634Z,4.05
2022-10-11T01:04:31.902Z,3.67
2022-10-11T01:06:59.288Z,3.78
2022-10-11T01:09:26.467Z,4.10
2022-10-11T01:11:53.791Z,3.97
2022-10-11T01:14:21.075Z,3.70
2022-10-11T01:16:48.291Z,3.40
2022-10-11T01:19:15.516Z,3.67
2022-10-11T01:21:42.806Z,3.10
2022-10-11T01:24:10.027Z,4.68
2022-10-11T01:26:37.323Z,3.17
2022-10-11T01:29:04.677Z,4.20
2022-10-11T01:31:31.978Z,4.45
2022-10-11T01:33:59.156Z,3.28
2022-10-11T01:36:27.938Z,4.05
2022-10-11T01:38:55.143Z,2.80
2022-10-11T01:41:22.347Z,3.40
2022-10-11T01:43:49.551Z,3.60
2022-10-11T01:46:16.725Z,3.75
2022-10-11T01:48:43.913Z,3.28
2022-10-11T01:51:11.154Z,3.10
2022-10-11T01:53:38.379Z,3.97
2022-10-11T01:56:06.187Z,4.55
2022-10-11T01:58:33.630Z,4.18
2022-10-11T02:01:00.891Z,4.18
2022-10-11T02:03:28.299Z,3.92
2022-10-11T02:05:55.519Z,4.57
2022-10-11T02:08:22.707Z,3.95
2022-10-11T02:10:50.028Z,4.15
2022-10-11T02:13:17.242Z,4.90
2022-10-11T02:15:44.476Z,4.60
2022-10-11T02:18:11.657Z,3.88
2022-10-11T02:20:38.935Z,5.43
2022-10-11T02:23:06.127Z,3.75
2022-10-11T02:25:33.312Z,4.03
2022-10-11T02:28:00.499Z,4.22
2022-10-11T02:30:27.749Z,3.80
2022-10-11T02:32:54.956Z,3.53
2022-10-11T02:35:22.278Z,3.75
2022-10-11T02:37:49.473Z,5.70
2022-10-11T02:40:16.753Z,3.25
2022-10-11T02:42:44.563Z,3.50
2022-10-11T02:45:11.778Z,4.13
2022-10-11T02:47:39.016Z,4.30
2022-10-11T02:50:06.200Z,3.13
2022-10-11T02:52:33.443Z,3.45
2022-10-11T02:55:00.614Z,3.47
2022-10-11T02:57:27.923Z,3.65
2022-10-11T02:59:55.104Z,3.65
2022-10-11T03:02:22.487Z,5.95
2022-10-11T03:04:49.803Z,5.25
2022-10-11T03:07:17.052Z,3.90
2022-10-11T03:09:45.235Z,3.50
2022-10-11T03:12:12.630Z,3.40
2022-10-11T03:14:39.966Z,3.35
2022-10-11T03:17:31.144Z,3.80
2022-10-11T03:19:54.529Z,3.58
2022-10-11T03:22:21.700Z,3.28
2022-10-11T03:24:48.941Z,3.80
2022-10-11T03:27:16.135Z,4.72
2022-10-11T03:29:43.375Z,2.88
2022-10-11T03:32:10.539Z,4.35
2022-10-11T03:34:37.837Z,4.53
2022-10-11T03:37:05.046Z,3.10
2022-10-11T03:39:32.318Z,4.03
2022-10-11T03:41:59.554Z,3.70
2022-10-11T03:44:26.845Z,3.22
2022-10-11T03:46:54.002Z,3.28
2022-10-11T03:49:21.250Z,3.38
2022-10-11T03:51:48.390Z,3.20
2022-10-11T03:54:15.633Z,3.10
2022-10-11T03:56:42.824Z,3.38
2022-10-11T03:59:10.688Z,3.72
2022-10-11T04:01:38.630Z,3.72
2022-10-11T04:04:05.943Z,3.92
2022-10-11T04:06:33.114Z,3.38
2022-10-11T04:09:00.367Z,3.72
2022-10-11T04:11:27.598Z,4.28
2022-10-11T04:13:54.838Z,2.95
2022-10-11T04:16:22.039Z,3.47
2022-10-11T04:18:49.377Z,3.17
2022-10-11T04:21:16.645Z,3.08
2022-10-11T04:23:43.879Z,3.35
2022-10-11T04:26:11.113Z,3.80
2022-10-11T04:28:38.411Z,3.55
2022-10-11T04:31:06.689Z,3.28
2022-10-11T04:33:34.264Z,3.03
2022-10-11T04:36:01.696Z,3.55
2022-10-11T04:38:29.253Z,3.50
2022-10-11T04:40:56.465Z,3.50
2022-10-11T04:43:23.768Z,2.95
2022-10-11T04:45:55.254Z,5.45
2022-10-11T04:48:22.826Z,3.47
2022-10-11T04:50:50.023Z,3.50
2022-10-11T04:53:17.291Z,2.75
2022-10-11T04:55:44.564Z,2.88
2022-10-11T04:58:11.802Z,3.30
2022-10-11T05:00:39.007Z,3.65
2022-10-11T05:03:07.744Z,2.92
2022-10-11T05:05:37.603Z,3.80
2022-10-11T05:08:08.351Z,3.15
2022-10-11T05:10:37.401Z,3.20
2022-10-11T05:13:04.729Z,2.58
2022-10-11T05:15:31.991Z,3.08
2022-10-11T05:17:59.264Z,3.25
2022-10-11T05:20:26.512Z,3.22
2022-10-11T05:22:53.814Z,2.90
2022-10-11T05:25:20.997Z,3.10
2022-10-11T05:27:48.767Z,3.00
2022-10-11T05:30:16.130Z,3.28
2022-10-11T05:32:43.576Z,3.70
2022-10-11T05:35:10.932Z,2.90
2022-10-11T05:37:38.296Z,3.42
2022-10-11T05:40:05.522Z,4.03
2022-10-11T05:42:32.802Z,3.20
2022-10-11T05:45:00.161Z,3.47
2022-10-11T05:47:27.419Z,3.58
2022-10-11T05:49:54.644Z,4.00
2022-10-11T05:52:21.907Z,4.22
2022-10-11T05:54:49.166Z,3.78
2022-10-11T05:57:16.619Z,3.30
2022-10-11T05:59:43.809Z,3.92
2022-10-11T06:02:11.055Z,3.00
2022-10-11T06:04:38.300Z,3.53
2022-10-11T06:07:05.536Z,3.25
2022-10-11T06:09:34.923Z,4.00
2022-10-11T06:12:02.472Z,4.88
2022-10-11T06:14:29.858Z,2.95
2022-10-11T06:16:57.097Z,3.53
2022-10-11T06:19:24.344Z,3.30
2022-10-11T06:21:52.194Z,3.53
2022-10-11T06:24:19.720Z,3.10
2022-10-11T06:26:46.981Z,2.95
2022-10-11T06:29:14.184Z,3.10
2022-10-11T06:31:41.628Z,3.13
2022-10-11T06:34:08.867Z,5.20
2022-10-11T06:36:37.327Z,4.13
2022-10-11T06:39:04.547Z,3.53
2022-10-11T06:41:31.851Z,2.88
2022-10-11T06:43:59.077Z,3.42
2022-10-11T06:46:26.315Z,3.22
2022-10-11T06:48:54.348Z,3.92
2022-10-11T06:51:21.751Z,3.78
2022-10-11T06:53:48.980Z,3.70
2022-10-11T06:56:16.792Z,5.57
2022-10-11T06:58:44.078Z,3.53
2022-10-11T07:01:11.455Z,3.17
2022-10-11T07:03:38.886Z,3.95
2022-10-11T07:06:06.482Z,3.95
2022-10-11T07:08:33.850Z,3.83
2022-10-11T07:11:01.290Z,4.68
2022-10-11T07:13:28.644Z,4.13
2022-10-11T07:15:56.116Z,4.80
2022-10-11T07:18:23.474Z,3.60
2022-10-11T07:20:50.791Z,3.42
2022-10-11T07:23:18.265Z,3.38
2022-10-11T07:25:45.536Z,3.42
2022-10-11T07:28:12.933Z,2.92
2022-10-11T07:30:40.311Z,3.03
2022-10-11T07:33:07.618Z,4.35
2022-10-11T07:35:34.791Z,3.85
2022-10-11T07:38:02.344Z,3.45
2022-10-11T07:40:29.631Z,3.35
2022-10-11T07:42:58.253Z,2.92
2022-10-11T07:45:28.736Z,3.20
2022-10-11T07:47:56.010Z,3.00
2022-10-11T07:50:23.390Z,3.70
2022-10-11T07:52:50.745Z,5.07
2022-10-11T07:55:18.048Z,6.25
2022-10-11T07:57:45.314Z,6.20
2022-10-11T08:00:12.501Z,5.20
2022-10-11T08:02:39.865Z,4.57
2022-10-11T08:05:07.077Z,5.38
2022-10-11T08:07:34.382Z,4.32
2022-10-11T08:10:01.602Z,6.20
2022-10-11T08:12:28.896Z,5.22
2022-10-11T08:14:56.142Z,7.05
2022-10-11T08:17:23.421Z,5.15
2022-10-11T08:19:50.674Z,6.55
2022-10-11T08:22:17.914Z,6.40
2022-10-11T08:24:45.097Z,8.10
2022-10-11T08:27:12.330Z,7.82
2022-10-11T08:29:39.557Z,10.00
2022-10-11T08:32:06.936Z,9.57
2022-10-11T08:34:34.132Z,8.60
2022-10-11T08:37:01.377Z,9.02
2022-10-11T08:39:28.615Z,11.10
2022-10-11T08:41:55.930Z,10.30
2022-10-11T08:44:23.188Z,8.45
2022-10-11T08:46:50.495Z,8.40
2022-10-11T08:49:19.277Z,8.57
2022-10-11T08:51:46.723Z,6.72
2022-10-11T08:54:13.970Z,6.30
2022-10-11T08:56:43.373Z,5.72
2022-10-11T08:59:10.619Z,5.82
2022-10-11T09:01:38.088Z,5.82
2022-10-11T09:04:06.504Z,5.88
2022-10-11T09:06:33.702Z,5.88
2022-10-11T09:09:01.035Z,6.05
2022-10-11T09:11:28.484Z,5.80
2022-10-11T09:13:55.746Z,4.47
2022-10-11T09:16:22.966Z,5.13
2022-10-11T09:18:50.212Z,4.43
2022-10-11T09:21:17.535Z,4.35
2022-10-11T09:23:44.747Z,6.43
2022-10-11T09:26:11.949Z,5.00
2022-10-11T09:28:39.397Z,5.53
2022-10-11T09:31:06.746Z,4.80
2022-10-11T09:33:34.235Z,4.68
2022-10-11T09:36:01.515Z,4.53
2022-10-11T09:38:28.938Z,3.95
2022-10-11T09:40:56.423Z,3.65
2022-10-11T09:43:23.675Z,4.85
2022-10-11T09:45:51.067Z,4.32
2022-10-11T09:48:18.507Z,3.92
2022-10-11T09:50:45.743Z,3.97
2022-10-11T09:53:13.131Z,3.88
2022-10-11T09:55:41.825Z,5.28
2022-10-11T09:58:09.348Z,3.45
2022-10-11T10:00:36.661Z,3.90
2022-10-11T10:03:03.908Z,4.50
2022-10-11T10:05:31.195Z,3.58
2022-10-11T10:08:01.600Z,3.63
2022-10-11T10:10:31.570Z,3.75
2022-10-11T10:12:59.440Z,4.05
2022-10-11T10:15:26.651Z,2.35
2022-10-11T10:17:55.204Z,4.93
2022-10-11T10:20:22.920Z,2.42
2022-10-11T10:22:50.198Z,3.58
2022-10-11T10:25:17.491Z,3.03
2022-10-11T10:27:44.823Z,3.03
2022-10-11T10:30:13.304Z,3.22
2022-10-11T10:32:43.780Z,3.50
2022-10-11T10:35:13.499Z,3.10
2022-10-11T10:37:40.842Z,2.85
2022-10-11T10:40:08.192Z,3.40
2022-10-11T10:42:35.411Z,3.08
2022-10-11T10:45:02.671Z,3.55
2022-10-11T10:47:29.943Z,2.95
2022-10-11T10:49:57.182Z,3.75
2022-10-11T10:52:24.446Z,2.78
2022-10-11T10:54:51.724Z,4.93
2022-10-11T10:57:19.227Z,2.80
2022-10-11T10:59:46.443Z,2.85
2022-10-11T11:02:35.473Z,3.15
2022-10-11T11:05:00.922Z,2.47
2022-10-11T11:07:28.214Z,2.30
2022-10-11T11:09:55.476Z,2.33
2022-10-11T11:12:22.717Z,3.03
2022-10-11T11:14:49.955Z,2.70
2022-10-11T11:17:17.198Z,2.78
2022-10-11T11:19:44.528Z,2.83
2022-10-11T11:22:12.719Z,2.58
2022-10-11T11:24:40.027Z,2.38
2022-10-11T11:27:07.281Z,2.80
2022-10-11T11:29:34.558Z,3.15
2022-10-11T11:32:01.959Z,2.90
2022-10-11T11:34:29.277Z,2.58
2022-10-11T11:36:56.467Z,2.53
2022-10-11T11:39:23.814Z,3.03
2022-10-11T11:41:51.044Z,2.83
2022-10-11T11:44:18.497Z,3.03
2022-10-11T11:46:45.757Z,2.30
2022-10-11T11:49:13.218Z,4.72
2022-10-11T11:51:41.104Z,2.58
2022-10-11T11:54:09.397Z,3.00
2022-10-11T11:56:36.689Z,2.88
2022-10-11T11:59:04.073Z,3.47
2022-10-11T12:01:31.781Z,2.92
2022-10-11T12:03:59.145Z,2.22
2022-10-11T12:06:26.647Z,2.88
2022-10-11T12:08:54.038Z,3.30
2022-10-11T12:11:21.667Z,1.80
2022-10-11T12:13:49.016Z,2.55
2022-10-11T12:16:16.336Z,3.60
2022-10-11T12:18:43.649Z,2.33
2022-10-11T12:21:10.823Z,2.45
2022-10-11T12:23:38.129Z,2.20
2022-10-11T12:26:05.362Z,2.05
2022-10-11T12:28:32.674Z,3.00
2022-10-11T12:31:00.173Z,3.13
2022-10-11T12:33:27.520Z,2.17
2022-10-11T12:35:54.868Z,3.15
2022-10-11T12:38:22.412Z,1.90
2022-10-11T12:40:49.817Z,2.63
2022-10-11T12:43:17.035Z,3.80
2022-10-11T12:45:47.972Z,1.98
2022-10-11T12:48:15.838Z,3.15
2022-10-11T12:50:43.018Z,2.10
2022-10-11T12:53:10.266Z,2.13
2022-10-11T12:55:37.612Z,2.90
2022-10-11T12:58:07.559Z,2.53
2022-10-11T13:00:34.889Z,1.98
2022-10-11T13:03:02.131Z,2.60
2022-10-11T13:05:29.412Z,3.53
2022-10-11T13:07:56.812Z,3.25
2022-10-11T13:10:24.058Z,4.50
2022-10-11T13:12:51.289Z,3.60
2022-10-11T13:15:18.826Z,2.28
2022-10-11T13:17:46.113Z,2.40
2022-10-11T13:20:13.406Z,3.15
2022-10-11T13:22:40.688Z,2.40
2022-10-11T13:25:07.983Z,2.47
2022-10-11T13:27:35.173Z,2.92
2022-10-11T13:30:02.531Z,2.00
2022-10-11T13:32:29.820Z,3.10
2022-10-11T13:34:57.121Z,2.00
2022-10-11T13:37:24.486Z,2.60
2022-10-11T13:39:51.750Z,2.63
2022-10-11T13:42:18.916Z,2.08
2022-10-11T13:44:46.249Z,3.13
2022-10-11T13:47:14.285Z,2.47
2022-10-11T13:49:41.510Z,2.72
2022-10-11T13:52:11.727Z,2.90
2022-10-11T13:54:39.230Z,2.80
2022-10-11T13:57:06.370Z,2.25
2022-10-11T13:59:33.598Z,1.92
2022-10-11T14:02:01.269Z,2.35
2022-10-11T14:04:30.044Z,2.10
2022-10-11T14:06:58.296Z,1.75
2022-10-11T14:09:25.638Z,2.05
2022-10-11T14:11:52.977Z,2.33
2022-10-11T14:14:20.338Z,1.90
2022-10-11T14:16:47.613Z,2.13
2022-10-11T14:19:15.661Z,2.10
2022-10-11T14:21:43.351Z,1.90
2022-10-11T14:24:10.691Z,1.98
2022-10-11T14:26:40.754Z,2.10
2022-10-11T14:29:07.947Z,2.08
2022-10-11T14:31:41.454Z,2.22
2022-10-11T14:34:09.360Z,1.95
2022-10-11T14:36:36.702Z,1.60
2022-10-11T14:39:04.017Z,2.17
2022-10-11T14:41:31.302Z,2.03
2022-10-11T14:43:58.798Z,1.77
2022-10-11T14:46:25.950Z,2.17
2022-10-11T14:48:56.012Z,2.15
2022-10-11T14:51:23.693Z,2.35
2022-10-11T14:53:50.981Z,1.85
2022-10-11T14:56:21.478Z,1.85
2022-10-11T14:58:49.182Z,2.05
2022-10-11T15:01:16.622Z,2.05
2022-10-11T15:03:44.050Z,1.90
2022-10-11T15:06:11.281Z,1.58
2022-10-11T15:08:38.551Z,1.85
2022-10-11T15:11:06.058Z,1.50
2022-10-11T15:13:33.361Z,2.05
2022-10-11T15:16:00.553Z,1.92
2022-10-11T15:18:27.772Z,1.83
2022-10-11T15:20:56.180Z,1.88
2022-10-11T15:23:24.848Z,1.85
2022-10-11T15:25:52.127Z,2.33
2022-10-11T15:28:19.548Z,1.35
2022-10-11T15:30:46.753Z,1.80
2022-10-11T15:33:13.980Z,1.45
2022-10-11T15:35:41.330Z,1.70
2022-10-11T15:38:08.563Z,1.98
2022-10-11T15:40:36.036Z,2.00
2022-10-11T15:43:03.277Z,1.92
2022-10-11T15:45:30.714Z,1.58
2022-10-11T15:47:58.134Z,1.73
2022-10-11T15:50:34.716Z,1.98
2022-10-11T15:53:02.541Z,2.50
2022-10-11T15:55:29.750Z,2.47
2022-10-11T15:57:57.395Z,1.70
2022-10-11T16:00:24.604Z,2.90
2022-10-11T16:02:51.913Z,2.15
2022-10-11T16:05:19.294Z,2.65
2022-10-11T16:07:46.941Z,2.00
2022-10-11T16:10:14.358Z,2.10
2022-10-11T16:12:41.678Z,2.40
2022-10-11T16:15:08.835Z,1.65
2022-10-11T16:17:36.076Z,1.98
2022-10-11T16:20:06.752Z,1.73
2022-10-11T16:22:34.110Z,2.90
2022-10-11T16:25:02.288Z,2.42
2022-10-11T16:27:29.637Z,1.83
2022-10-11T16:29:56.834Z,2.22
2022-10-11T16:32:24.407Z,2.38
2022-10-11T16:34:51.581Z,2.13
2022-10-11T16:37:19.102Z,2.80
2022-10-11T16:39:46.387Z,2.90
2022-10-11T16:42:13.669Z,4.35
2022-10-11T16:44:40.955Z,2.97
2022-10-11T16:47:08.307Z,2.40
2022-10-11T16:49:35.582Z,2.47
2022-10-11T16:52:04.040Z,3.13
2022-10-11T16:54:31.306Z,2.78
2022-10-11T16:56:58.569Z,2.33
2022-10-11T16:59:25.778Z,3.55
2022-10-11T17:01:53.112Z,5.40
2022-10-11T17:04:20.461Z,3.97
2022-10-11T17:06:47.790Z,4.20
2022-10-11T17:09:16.058Z,3.30
2022-10-11T17:11:43.339Z,3.65
2022-10-11T17:14:10.589Z,3.15
2022-10-11T17:16:37.819Z,2.40
2022-10-11T17:19:05.073Z,2.90
2022-10-11T17:21:32.371Z,2.95
2022-10-11T17:23:59.645Z,4.07
2022-10-11T17:26:36.300Z,2.80
2022-10-11T17:29:06.550Z,3.85
2022-10-11T17:31:33.906Z,3.25
2022-10-11T17:34:01.327Z,4.55
2022-10-11T17:36:30.594Z,4.03
2022-10-11T17:38:58.046Z,6.15
2022-10-11T17:41:30.893Z,4.97
2022-10-11T17:43:59.576Z,4.85
2022-10-11T17:46:28.146Z,5.32
2022-10-11T17:48:55.874Z,5.30
2022-10-11T17:51:23.233Z,7.00
2022-10-11T17:53:55.803Z,7.57
2022-10-11T17:56:28.160Z,7.57
2022-10-11T17:58:56.310Z,7.50
2022-10-11T18:01:23.752Z,7.65
2022-10-11T18:03:51.074Z,8.55
2022-10-11T18:06:18.305Z,8.65
2022-10-11T18:08:45.662Z,9.38
2022-10-11T18:11:13.148Z,7.57
2022-10-11T18:13:42.945Z,8.43
2022-10-11T18:16:11.152Z,7.28
2022-10-11T18:18:38.717Z,7.13
2022-10-11T18:21:06.085Z,6.82
2022-10-11T18:23:33.500Z,7.05
2022-10-11T18:26:01.644Z,6.38
2022-10-11T18:28:29.950Z,5.13
2022-10-11T18:30:59.075Z,4.88
2022-10-11T18:33:26.465Z,4.85
2022-10-11T18:35:53.983Z,5.20
2022-10-11T18:38:21.149Z,5.07
2022-10-11T18:40:48.445Z,5.75
2022-10-11T18:43:15.757Z,5.72
2022-10-11T18:45:43.101Z,6.47
2022-10-11T18:48:10.573Z,5.47
2022-10-11T18:50:37.971Z,5.68
2022-10-11T18:55:38.225Z,5.75
2022-10-11T18:58:05.428Z,4.78
2022-10-11T19:00:41.331Z,4.75
2022-10-11T19:03:09.128Z,5.60
2022-10-11T19:05:36.378Z,5.05
2022-10-11T19:08:03.637Z,5.43
2022-10-11T19:10:31.182Z,6.22
2022-10-11T19:12:59.599Z,6.35
2022-10-11T19:15:28.888Z,5.43
2022-10-11T19:17:56.458Z,6.65
2022-10-11T19:20:23.712Z,5.57
2022-10-11T19:22:51.088Z,5.07
2022-10-11T19:25:18.485Z,5.97
2022-10-11T19:27:45.862Z,5.65
2022-10-11T19:30:13.284Z,5.78
2022-10-11T19:32:40.778Z,5.35
2022-10-11T19:35:07.974Z,5.22
2022-10-11T19:37:35.284Z,6.82
2022-10-11T19:40:03.969Z,6.15
2022-10-11T19:42:31.393Z,6.03
2022-10-11T19:44:58.764Z,6.38
2022-10-11T19:47:26.087Z,6.97
2022-10-11T19:49:53.306Z,6.78
2022-10-11T19:52:20.753Z,7.10
2022-10-11T19:54:48.179Z,6.55
2022-10-11T19:57:15.542Z,6.40
2022-10-11T19:59:42.894Z,7.57
2022-10-11T20:02:10.181Z,6.25
2022-10-11T20:04:52.065Z,6.38
2022-10-11T20:07:20.300Z,6.35
2022-10-11T20:09:47.547Z,7.15
2022-10-11T20:12:14.836Z,5.03
2022-10-11T20:14:42.449Z,6.18
2022-10-11T20:17:09.753Z,5.70
2022-10-11T20:19:37.062Z,5.78
2022-10-11T20:22:04.381Z,5.18
2022-10-11T20:24:34.547Z,5.57
2022-10-11T20:27:02.378Z,6.70
2022-10-11T20:29:29.676Z,4.55
2022-10-11T20:31:58.827Z,4.85
2022-10-11T20:34:27.233Z,5.53
2022-10-11T20:36:54.609Z,5.40
2022-10-11T20:39:21.977Z,5.18
2022-10-11T20:41:49.271Z,5.03
2022-10-11T20:44:17.988Z,7.03
2022-10-11T20:46:45.262Z,9.25
2022-10-11T20:49:12.455Z,7.65
2022-10-11T20:51:39.914Z,5.65
2022-10-11T20:54:07.149Z,6.85
2022-10-11T20:56:34.374Z,5.75
2022-10-11T20:59:01.621Z,5.07
2022-10-11T21:01:29.032Z,5.28
2022-10-11T21:03:56.361Z,5.25
2022-10-11T21:06:23.656Z,4.38
2022-10-11T21:08:50.837Z,5.25
2022-10-11T21:11:18.078Z,5.03
2022-10-11T21:13:45.472Z,4.78
2022-10-11T21:16:12.740Z,4.90
2022-10-11T21:18:39.926Z,4.60
2022-10-11T21:21:07.330Z,5.88
2022-10-11T21:23:34.655Z,4.45
2022-10-11T21:26:01.998Z,5.95
2022-10-11T21:28:29.757Z,4.88
2022-10-11T21:30:58.188Z,4.63
2022-10-11T21:33:26.818Z,3.72
2022-10-11T21:35:55.342Z,4.40
2022-10-11T21:38:22.694Z,4.75
2022-10-11T21:40:50.030Z,5.28
2022-10-11T21:43:17.276Z,5.68
2022-10-11T21:45:44.546Z,4.65
2022-10-11T21:48:14.895Z,5.05
2022-10-11T21:50:43.318Z,4.60
2022-10-11T21:53:10.524Z,6.35
2022-10-11T21:55:37.908Z,4.90
2022-10-11T21:58:05.242Z,4.55
2022-10-11T22:00:32.550Z,4.45
2022-10-11T22:02:59.797Z,5.03
2022-10-11T22:05:27.093Z,6.63
2022-10-11T22:07:54.361Z,5.18
2022-10-11T22:10:21.572Z,5.32
2022-10-11T22:12:48.939Z,4.32
2022-10-11T22:15:16.091Z,4.88
2022-10-11T22:17:43.387Z,5.15
2022-10-11T22:20:10.568Z,4.80
2022-10-11T22:22:38.190Z,6.30
2022-10-11T22:25:05.563Z,5.38
2022-10-11T22:27:32.963Z,4.95
2022-10-11T22:30:00.416Z,4.80
2022-10-11T22:32:27.726Z,4.60
2022-10-11T22:34:55.008Z,6.50
2022-10-11T22:37:22.306Z,4.30
2022-10-11T22:39:49.574Z,4.70
2022-10-11T22:42:16.926Z,4.22
2022-10-11T22:44:44.125Z,4.90
2022-10-11T22:47:11.389Z,4.72
2022-10-11T22:49:38.705Z,4.70
2022-10-11T22:52:05.963Z,4.88
2022-10-11T22:54:33.249Z,4.38
2022-10-11T22:57:00.513Z,4.88
2022-10-11T22:59:27.922Z,4.75
2022-10-11T23:01:58.175Z,5.63
2022-10-11T23:04:25.535Z,5.40
2022-10-11T23:06:52.744Z,7.32
2022-10-11T23:09:20.086Z,5.72
2022-10-11T23:11:47.316Z,4.30
2022-10-11T23:14:14.659Z,5.47
2022-10-11T23:16:41.840Z,5.03
2022-10-11T23:19:09.162Z,4.35
2022-10-11T23:21:36.423Z,4.22
2022-10-11T23:24:04.855Z,4.28
2022-10-11T23:26:32.565Z,4.68
2022-10-11T23:28:59.840Z,4.63
2022-10-11T23:31:27.078Z,4.85
2022-10-11T23:33:54.701Z,6.47
2022-10-11T23:36:21.990Z,5.82
2022-10-11T23:38:49.403Z,4.80
2022-10-11T23:41:16.691Z,4.88
2022-10-11T23:43:43.948Z,4.95
2022-10-11T23:46:11.186Z,5.07
2022-10-11T23:48:38.509Z,4.32
2022-10-11T23:51:05.756Z,4.60
2022-10-11T23:53:32.969Z,5.13
2022-10-11T23:56:00.240Z,4.60
2022-10-11T23:58:27.625Z,5.50
